Time;durP1;ratioP1;P1;durP2;ratioP2;P2;SDS_P1;SDS_P2;PMS_P1;PMS_P2;Temp;Humidity;BMP_temperature;BMP_pressure;BME280_temperature;BME280_humidity;BME280_pressure;Samples;Min_cycle;Max_cycle;Signal;HPM_P1;HPM_P2
2023/04/18 00:01:45;;;;;;;13.73;10.05;;;6.80;98.20;;;;;;5110966;27;20182;-82
2023/04/18 00:04:12;;;;;;;12.50;9.98;;;6.70;98.40;;;;;;5108346;27;21382;-82
2023/04/18 00:06:37;;;;;;;12.23;8.98;;;6.70;98.70;;;;;;5127906;27;20046;-83
2023/04/18 00:09:04;;;;;;;15.07;10.10;;;6.70;99.00;;;;;;5109217;27;20043;-82
2023/04/18 00:11:30;;;;;;;14.00;10.68;;;6.70;99.40;;;;;;5109316;27;20114;-82
2023/04/18 00:13:56;;;;;;;11.77;9.65;;;6.60;99.60;;;;;;5109454;27;20153;-82
2023/04/18 00:16:27;;;;;;;13.32;9.85;;;6.60;99.90;;;;;;5108306;27;20070;-82
2023/04/18 00:18:52;;;;;;;13.98;10.38;;;6.60;99.90;;;;;;5109221;27;20039;-82
2023/04/18 00:21:18;;;;;;;13.98;9.73;;;6.60;99.90;;;;;;5109465;27;20047;-82
2023/04/18 00:23:45;;;;;;;11.45;10.00;;;6.60;99.90;;;;;;5109244;27;20139;-82
2023/04/18 00:26:10;;;;;;;11.90;10.52;;;6.50;99.90;;;;;;5109864;27;20044;-82
2023/04/18 00:28:36;;;;;;;15.32;10.13;;;6.50;99.90;;;;;;5106376;28;20047;-82
2023/04/18 00:31:04;;;;;;;14.55;10.63;;;6.50;99.90;;;;;;5107476;27;20047;-82
2023/04/18 00:33:30;;;;;;;12.95;9.93;;;6.50;99.90;;;;;;5101389;27;20039;-82
2023/04/18 00:35:55;;;;;;;13.02;10.30;;;6.50;99.90;;;;;;5107802;27;20051;-82
2023/04/18 00:38:21;;;;;;;13.27;9.60;;;6.40;99.90;;;;;;5092393;27;20039;-80
2023/04/18 00:40:46;;;;;;;14.68;10.55;;;6.40;99.90;;;;;;5108865;27;20473;-82
2023/04/18 00:43:13;;;;;;;15.00;10.13;;;6.40;99.90;;;;;;5109304;28;20043;-82
2023/04/18 00:45:39;;;;;;;14.93;10.80;;;6.40;99.90;;;;;;5092511;27;20042;-81
2023/04/18 00:48:05;;;;;;;11.52;10.10;;;6.30;99.90;;;;;;5098929;28;20616;-81
2023/04/18 00:50:30;;;;;;;13.07;9.55;;;6.30;99.90;;;;;;5097852;27;20047;-81
2023/04/18 00:52:57;;;;;;;13.75;9.88;;;6.30;99.90;;;;;;5121750;28;20046;-81
2023/04/18 00:55:23;;;;;;;13.32;10.57;;;6.30;99.90;;;;;;5078648;27;20043;-81
2023/04/18 00:57:50;;;;;;;12.82;10.93;;;6.30;99.90;;;;;;5109801;28;20768;-81
2023/04/18 01:00:16;;;;;;;13.93;10.15;;;6.20;99.90;;;;;;5108306;28;20050;-81
2023/04/18 01:02:41;;;;;;;15.55;10.52;;;6.20;99.90;;;;;;5107538;28;20405;-81
2023/04/18 01:05:07;;;;;;;19.13;10.23;;;6.20;99.90;;;;;;5101044;27;20075;-81
2023/04/18 01:07:36;;;;;;;13.38;11.13;;;5.80;99.90;;;;;;5092401;28;20039;-81
2023/04/18 01:10:02;;;;;;;13.40;10.07;;;6.20;99.90;;;;;;5101458;28;20072;-81
2023/04/18 01:12:28;;;;;;;13.63;10.75;;;6.10;99.90;;;;;;5117488;27;20484;-82
2023/04/18 01:14:54;;;;;;;12.60;10.32;;;6.10;99.90;;;;;;5127405;28;20039;-82
2023/04/18 01:17:22;;;;;;;14.18;10.77;;;6.20;99.90;;;;;;5108611;28;20035;-81
2023/04/18 01:19:47;;;;;;;11.70;10.15;;;6.20;99.90;;;;;;5108737;28;20412;-82
2023/04/18 01:22:14;;;;;;;13.95;10.48;;;7.00;99.90;;;;;;5108852;28;20046;-82
2023/04/18 01:24:40;;;;;;;12.90;10.57;;;6.10;99.90;;;;;;5104934;28;20488;-82
2023/04/18 01:27:09;;;;;;;12.75;10.35;;;6.10;99.90;;;;;;5105018;28;20342;-81
2023/04/18 01:29:35;;;;;;;13.70;9.57;;;6.00;99.90;;;;;;5089992;28;20050;-81
2023/04/18 01:32:01;;;;;;;12.80;9.70;;;6.00;99.90;;;;;;5108451;28;20424;-82
2023/04/18 01:34:27;;;;;;;12.85;11.25;;;6.00;99.90;;;;;;5104014;28;20044;-82
2023/04/18 01:36:52;;;;;;;15.45;9.80;;;5.90;99.90;;;;;;5105083;28;20113;-81
2023/04/18 01:39:18;;;;;;;11.93;9.93;;;5.90;99.90;;;;;;5089181;28;20423;-81
2023/04/18 01:41:43;;;;;;;14.32;10.02;;;6.30;99.90;;;;;;5106054;28;20044;-82
2023/04/18 01:44:09;;;;;;;12.77;10.27;;;5.90;99.90;;;;;;5107474;28;20051;-81
2023/04/18 01:46:35;;;;;;;14.65;10.95;;;5.80;99.90;;;;;;5105043;28;20098;-81
2023/04/18 01:49:01;;;;;;;14.48;10.55;;;5.90;99.90;;;;;;5104004;28;20051;-81
2023/04/18 01:51:26;;;;;;;14.60;10.55;;;5.80;99.90;;;;;;5096736;28;20047;-82
2023/04/18 01:53:52;;;;;;;13.75;11.05;;;5.80;99.90;;;;;;5085923;28;20159;-82
2023/04/18 01:56:18;;;;;;;13.63;10.52;;;5.80;99.90;;;;;;5099831;28;20159;-82
2023/04/18 01:58:43;;;;;;;16.58;10.80;;;6.50;99.90;;;;;;5106242;28;20092;-82
2023/04/18 02:01:09;;;;;;;12.75;10.88;;;5.80;99.90;;;;;;5105790;28;20054;-82
2023/04/18 02:03:35;;;;;;;14.05;10.35;;;5.80;99.90;;;;;;5105356;28;20040;-82
2023/04/18 02:06:02;;;;;;;13.93;9.93;;;5.80;99.90;;;;;;5103679;28;20052;-82
2023/04/18 02:08:29;;;;;;;13.23;10.10;;;5.80;99.90;;;;;;5106262;28;20039;-82
2023/04/18 02:10:55;;;;;;;15.05;11.27;;;5.90;99.90;;;;;;5109442;28;20047;-81
2023/04/18 02:13:20;;;;;;;14.95;10.65;;;5.90;99.90;;;;;;5092223;28;20047;-81
2023/04/18 02:15:46;;;;;;;13.75;11.13;;;5.90;99.90;;;;;;5108962;28;20044;-82
2023/04/18 02:18:12;;;;;;;14.48;11.18;;;5.90;99.90;;;;;;5109153;28;20486;-81
2023/04/18 02:20:38;;;;;;;12.70;10.00;;;5.90;99.90;;;;;;5105643;28;20138;-81
2023/04/18 02:23:04;;;;;;;14.23;10.20;;;6.40;99.90;;;;;;5099720;28;20060;-81
2023/04/18 02:25:30;;;;;;;15.15;11.00;;;5.90;99.90;;;;;;5087576;28;20043;-81
2023/04/18 02:27:56;;;;;;;12.70;10.85;;;6.50;99.90;;;;;;5109741;28;20044;-81
2023/04/18 02:30:23;;;;;;;14.85;11.23;;;6.00;99.90;;;;;;5091471;28;20418;-82
2023/04/18 02:32:53;;;;;;;15.95;10.73;;;6.20;99.90;;;;;;5090803;28;20067;-82
2023/04/18 02:35:19;;;;;;;15.43;10.40;;;6.10;99.90;;;;;;5091470;28;20435;-82
2023/04/18 02:37:45;;;;;;;14.15;11.45;;;6.10;99.90;;;;;;5096143;28;21120;-81
2023/04/18 02:40:11;;;;;;;14.70;11.00;;;6.10;99.90;;;;;;5086926;28;20096;-81
2023/04/18 02:42:37;;;;;;;14.77;10.88;;;6.10;99.90;;;;;;5081440;28;20403;-81
2023/04/18 02:45:03;;;;;;;14.13;10.95;;;6.10;99.90;;;;;;5089013;28;20055;-81
2023/04/18 02:47:29;;;;;;;15.05;11.45;;;6.20;99.90;;;;;;5072079;28;20044;-81
2023/04/18 02:49:55;;;;;;;16.33;11.52;;;6.20;99.90;;;;;;5080246;28;20048;-81
2023/04/18 02:52:20;;;;;;;15.13;11.60;;;6.20;99.90;;;;;;5084463;28;20509;-81
2023/04/18 02:54:46;;;;;;;15.35;11.30;;;6.40;99.90;;;;;;5087556;28;20047;-81
2023/04/18 02:57:11;;;;;;;14.15;11.25;;;6.20;99.90;;;;;;5071165;28;20040;-82
2023/04/18 02:59:37;;;;;;;15.02;11.35;;;6.20;99.90;;;;;;5088439;28;20447;-82
2023/04/18 03:02:03;;;;;;;16.98;12.30;;;6.20;99.90;;;;;;5087911;28;20050;-82
2023/04/18 03:04:28;;;;;;;16.67;11.23;;;6.20;99.90;;;;;;5071359;28;20040;-81
2023/04/18 03:06:55;;;;;;;14.27;11.52;;;6.20;99.90;;;;;;5084590;28;20407;-81
2023/04/18 03:09:20;;;;;;;16.52;11.85;;;6.20;99.90;;;;;;5072935;28;20101;-82
2023/04/18 03:11:46;;;;;;;15.55;11.68;;;6.10;99.90;;;;;;5085353;28;20048;-81
2023/04/18 03:14:12;;;;;;;13.57;10.23;;;6.10;99.90;;;;;;5086598;28;20435;-82
2023/04/18 03:16:37;;;;;;;13.90;11.77;;;6.10;99.90;;;;;;5087224;28;20040;-81
2023/04/18 03:19:03;;;;;;;15.23;10.95;;;6.10;99.90;;;;;;5070754;28;20482;-81
2023/04/18 03:21:28;;;;;;;13.65;10.60;;;6.10;99.90;;;;;;5086066;28;20368;-81
2023/04/18 03:23:54;;;;;;;12.88;11.23;;;6.10;99.90;;;;;;5067876;28;20041;-82
2023/04/18 03:26:20;;;;;;;14.98;11.93;;;6.10;99.90;;;;;;5056155;28;20090;-82
2023/04/18 03:28:45;;;;;;;14.07;11.50;;;6.00;99.90;;;;;;5087728;28;20150;-82
2023/04/18 03:31:11;;;;;;;13.63;10.65;;;6.00;99.90;;;;;;5088614;28;20054;-81
2023/04/18 03:33:38;;;;;;;12.75;10.73;;;6.40;99.90;;;;;;5087674;28;20176;-81
2023/04/18 03:36:04;;;;;;;13.65;11.02;;;6.10;99.90;;;;;;5075264;28;20047;-81
2023/04/18 03:38:30;;;;;;;14.80;10.75;;;6.10;99.90;;;;;;5107839;28;20051;-81
2023/04/18 03:40:56;;;;;;;15.30;10.88;;;6.10;99.90;;;;;;5108334;27;20042;-81
2023/04/18 03:43:22;;;;;;;15.32;11.07;;;6.10;99.90;;;;;;5105284;28;20036;-81
2023/04/18 03:45:48;;;;;;;15.18;10.23;;;6.10;99.90;;;;;;5108208;28;20055;-81
2023/04/18 03:48:13;;;;;;;14.65;10.65;;;6.10;99.90;;;;;;5107516;28;20046;-82
2023/04/18 03:50:39;;;;;;;15.10;10.55;;;6.10;99.90;;;;;;5108124;28;20039;-82
2023/04/18 03:53:05;;;;;;;14.57;10.32;;;6.10;99.90;;;;;;5106035;28;20063;-81
2023/04/18 03:55:31;;;;;;;14.95;10.10;;;6.20;99.90;;;;;;5109688;28;20043;-81
2023/04/18 03:57:58;;;;;;;15.70;9.80;;;6.20;99.90;;;;;;5107302;28;20082;-81
2023/04/18 04:00:24;;;;;;;15.00;10.75;;;6.20;99.90;;;;;;5106405;28;20043;-81
2023/04/18 04:02:50;;;;;;;16.92;10.50;;;6.20;99.90;;;;;;5099396;28;20897;-81
2023/04/18 04:05:15;;;;;;;13.43;10.02;;;6.90;99.90;;;;;;5089533;28;20154;-81
2023/04/18 04:07:41;;;;;;;14.30;10.73;;;6.30;99.90;;;;;;5100484;28;20097;-81
2023/04/18 04:10:07;;;;;;;16.50;9.85;;;6.30;99.90;;;;;;5108646;28;20094;-81
2023/04/18 04:12:33;;;;;;;12.05;9.50;;;6.30;99.90;;;;;;5107695;28;20043;-82
2023/04/18 04:14:58;;;;;;;15.10;10.30;;;6.30;99.90;;;;;;5102331;28;20051;-82
2023/04/18 04:17:24;;;;;;;14.27;10.13;;;6.40;99.90;;;;;;5094266;28;20047;-81
2023/04/18 04:19:50;;;;;;;15.57;11.02;;;6.40;99.90;;;;;;5107369;28;20115;-81
2023/04/18 04:22:16;;;;;;;16.75;11.02;;;6.40;99.90;;;;;;5090361;28;20703;-81
2023/04/18 04:24:41;;;;;;;11.85;10.07;;;6.40;99.90;;;;;;5089811;28;20126;-82
2023/04/18 04:27:07;;;;;;;13.02;9.95;;;6.40;99.90;;;;;;5089227;28;20063;-82
2023/04/18 04:29:34;;;;;;;14.43;10.85;;;6.40;99.90;;;;;;5106893;28;20127;-82
2023/04/18 04:31:59;;;;;;;13.18;10.45;;;6.40;99.90;;;;;;5104321;28;20500;-81
2023/04/18 04:34:25;;;;;;;14.98;10.98;;;6.40;99.90;;;;;;5097323;28;20155;-82
2023/04/18 04:36:52;;;;;;;16.52;11.75;;;6.70;99.90;;;;;;5112025;27;20047;-81
2023/04/18 04:39:18;;;;;;;14.18;10.32;;;6.40;99.90;;;;;;5083363;28;20180;-81
2023/04/18 04:41:45;;;;;;;14.70;11.32;;;6.40;99.90;;;;;;5081290;27;20419;-83
2023/04/18 04:44:12;;;;;;;15.20;11.20;;;6.50;99.90;;;;;;5099811;27;20051;-81
2023/04/18 04:46:39;;;;;;;15.70;11.20;;;6.50;99.90;;;;;;5109773;28;20446;-81
2023/04/18 04:49:05;;;;;;;14.25;10.45;;;6.50;99.90;;;;;;5109403;28;20663;-81
2023/04/18 04:51:31;;;;;;;14.45;10.77;;;6.50;99.90;;;;;;5110235;27;20046;-81
2023/04/18 04:53:57;;;;;;;13.93;10.60;;;6.50;99.90;;;;;;5087534;28;20097;-81
2023/04/18 04:56:22;;;;;;;13.15;10.55;;;6.50;99.90;;;;;;5090091;28;20515;-82
2023/04/18 04:58:48;;;;;;;13.23;10.25;;;6.60;99.90;;;;;;5109536;28;20047;-82
2023/04/18 05:01:15;;;;;;;16.02;11.55;;;6.60;99.90;;;;;;5108722;27;20077;-81
2023/04/18 05:03:41;;;;;;;14.48;9.93;;;6.60;99.90;;;;;;5105653;28;20499;-83
2023/04/18 05:06:07;;;;;;;13.25;10.05;;;6.70;99.90;;;;;;5089004;28;20071;-83
2023/04/18 05:08:33;;;;;;;12.82;10.23;;;7.40;99.90;;;;;;5111299;28;20067;-83
2023/04/18 05:11:00;;;;;;;13.43;10.15;;;6.70;99.90;;;;;;5094622;28;20043;-83
2023/04/18 05:13:26;;;;;;;15.60;9.88;;;6.70;99.90;;;;;;5112422;28;20039;-82
2023/04/18 05:16:18;;;;;;;14.43;10.88;;;6.70;99.90;;;;;;5109874;28;20046;-82
2023/04/18 05:18:43;;;;;;;15.75;10.98;;;6.70;99.90;;;;;;5098740;28;20051;-83
2023/04/18 05:21:09;;;;;;;14.63;11.05;;;7.00;99.90;;;;;;5110184;28;20545;-83
2023/04/18 05:23:35;;;;;;;13.85;10.20;;;7.00;99.90;;;;;;5107745;28;20446;-83
2023/04/18 05:26:05;;;;;;;15.43;9.98;;;6.70;99.90;;;;;;5110098;28;20628;-82
2023/04/18 05:28:31;;;;;;;13.02;10.70;;;6.60;99.90;;;;;;5106257;28;20063;-82
2023/04/18 05:31:00;;;;;;;14.05;10.93;;;6.70;99.90;;;;;;5101506;28;20100;-81
2023/04/18 05:33:31;;;;;;;13.38;10.23;;;6.70;99.90;;;;;;5100707;28;20362;-81
2023/04/18 05:35:57;;;;;;;13.38;10.15;;;6.70;99.90;;;;;;5087115;28;20105;-82
2023/04/18 05:38:23;;;;;;;14.10;10.32;;;6.70;99.90;;;;;;5100446;28;20155;-82
2023/04/18 05:40:54;;;;;;;13.75;10.02;;;6.70;99.90;;;;;;5105452;28;20077;-83
2023/04/18 05:43:20;;;;;;;15.20;9.82;;;7.20;99.90;;;;;;5114221;27;20055;-82
2023/04/18 05:45:46;;;;;;;16.77;11.27;;;6.70;99.90;;;;;;5114780;27;20046;-83
2023/04/18 05:48:13;;;;;;;13.50;10.00;;;7.60;99.90;;;;;;5114127;27;20057;-84
2023/04/18 05:50:39;;;;;;;14.63;10.38;;;6.80;99.90;;;;;;5116671;27;20039;-83
2023/04/18 05:53:04;;;;;;;14.35;10.27;;;6.80;99.90;;;;;;5114003;27;20507;-83
2023/04/18 05:55:30;;;;;;;14.68;10.45;;;6.80;99.90;;;;;;5115448;27;20046;-83
2023/04/18 05:57:56;;;;;;;15.07;10.35;;;6.90;99.90;;;;;;5105382;27;20166;-84
2023/04/18 06:00:21;;;;;;;15.13;10.52;;;6.90;99.90;;;;;;5103777;28;20048;-83
2023/04/18 06:02:48;;;;;;;13.48;10.40;;;6.90;99.90;;;;;;5123259;27;20043;-85
2023/04/18 06:05:13;;;;;;;14.23;9.85;;;7.00;99.90;;;;;;5109700;27;20126;-86
2023/04/18 06:07:39;;;;;;;12.38;9.60;;;7.00;99.90;;;;;;5093447;27;20072;-85
2023/04/18 06:10:09;;;;;;;15.70;11.38;;;7.10;99.90;;;;;;5113509;27;20050;-82
2023/04/18 06:12:35;;;;;;;14.35;10.13;;;7.10;99.90;;;;;;5084619;28;20146;-84
2023/04/18 06:15:01;;;;;;;13.63;10.57;;;7.20;99.90;;;;;;5075361;28;20057;-83
2023/04/18 06:17:26;;;;;;;15.10;10.60;;;7.20;99.90;;;;;;5093352;27;20108;-83
2023/04/18 06:19:52;;;;;;;14.48;10.35;;;7.20;99.90;;;;;;5107179;27;20035;-82
2023/04/18 06:22:18;;;;;;;15.02;10.93;;;7.20;99.90;;;;;;5110969;27;20047;-83
2023/04/18 06:24:43;;;;;;;13.48;10.43;;;7.30;99.90;;;;;;5094086;27;20477;-83
2023/04/18 06:27:09;;;;;;;14.93;11.05;;;7.30;99.90;;;;;;5110945;27;20032;-80
2023/04/18 06:29:45;;;;;;;;;;;;;;;;;;;;;
2023/04/18 06:32:10;;;;;;;16.13;11.68;;;7.40;99.90;;;;;;5113426;27;20054;-82
2023/04/18 06:34:37;;;;;;;12.85;10.10;;;7.50;99.90;;;;;;5112166;27;20050;-82
2023/04/18 06:37:03;;;;;;;13.95;10.63;;;7.60;99.90;;;;;;5130685;27;20103;-82
2023/04/18 06:39:29;;;;;;;13.68;10.00;;;7.60;99.90;;;;;;5111554;27;20039;-82
2023/04/18 06:42:10;;;;;;;14.60;9.88;;;7.70;99.90;;;;;;5094798;28;20071;-82
2023/04/18 06:44:44;;;;;;;13.95;10.38;;;7.70;99.90;;;;;;5110029;28;20055;-81
2023/04/18 06:47:10;;;;;;;14.00;10.05;;;7.80;99.90;;;;;;5090976;28;20143;-83
2023/04/18 06:49:36;;;;;;;13.00;10.00;;;8.00;99.90;;;;;;5091865;28;20138;-82
2023/04/18 06:52:01;;;;;;;16.45;10.68;;;8.10;99.90;;;;;;5091794;28;20049;-82
2023/04/18 06:54:27;;;;;;;16.70;10.30;;;8.20;99.90;;;;;;5107237;27;20043;-82
2023/04/18 06:56:52;;;;;;;13.55;9.93;;;8.40;99.90;;;;;;5095674;27;20096;-82
2023/04/18 06:59:20;;;;;;;13.25;9.80;;;8.40;99.90;;;;;;5113526;27;20364;-82
2023/04/18 07:01:52;;;;;;;11.50;9.52;;;8.40;99.90;;;;;;5113197;27;20047;-81
2023/04/18 07:04:17;;;;;;;12.50;9.95;;;8.60;99.90;;;;;;5113418;27;20104;-80
2023/04/18 07:06:43;;;;;;;12.63;9.27;;;8.60;99.90;;;;;;5132519;27;20043;-81
2023/04/18 07:09:09;;;;;;;13.32;9.90;;;8.70;99.90;;;;;;5094495;28;20101;-81
2023/04/18 07:11:38;;;;;;;11.93;9.90;;;8.70;99.90;;;;;;5111303;27;20070;-82
2023/04/18 07:14:03;;;;;;;11.82;8.93;;;8.80;99.90;;;;;;5111898;27;20053;-81
2023/04/18 07:16:29;;;;;;;11.50;9.05;;;8.90;99.90;;;;;;5111271;27;20047;-81
2023/04/18 07:18:55;;;;;;;12.02;8.45;;;9.00;99.90;;;;;;5112293;27;20055;-82
2023/04/18 07:21:20;;;;;;;9.35;8.15;;;9.00;99.90;;;;;;5130318;27;20051;-81
2023/04/18 07:23:46;;;;;;;12.32;8.68;;;9.10;99.90;;;;;;5129388;27;20093;-81
2023/04/18 07:26:12;;;;;;;10.52;8.00;;;9.20;99.90;;;;;;5111398;27;20055;-80
2023/04/18 07:28:38;;;;;;;11.70;7.90;;;9.20;99.90;;;;;;5093568;27;20042;-81
2023/04/18 07:31:04;;;;;;;11.85;8.13;;;9.30;99.90;;;;;;5112423;27;20039;-81
2023/04/18 07:33:32;;;;;;;10.45;7.25;;;9.20;99.90;;;;;;5128782;27;20446;-81
2023/04/18 07:35:59;;;;;;;10.35;7.88;;;9.20;99.90;;;;;;5129058;27;20120;-81
2023/04/18 07:38:25;;;;;;;11.65;8.38;;;9.30;99.90;;;;;;5128585;27;20054;-82
2023/04/18 07:40:58;;;;;;;10.52;7.80;;;9.30;99.90;;;;;;5108635;27;20088;-81
2023/04/18 07:43:25;;;;;;;8.38;6.70;;;9.40;99.90;;;;;;5110522;27;20047;-80
2023/04/18 07:45:51;;;;;;;9.75;7.32;;;9.30;99.90;;;;;;5093845;27;20481;-80
2023/04/18 07:48:20;;;;;;;9.75;7.60;;;9.30;99.90;;;;;;5130176;27;20058;-80
2023/04/18 07:50:46;;;;;;;8.88;7.32;;;9.30;99.90;;;;;;5110724;27;20126;-80
2023/04/18 07:53:13;;;;;;;11.27;7.65;;;9.40;99.90;;;;;;5128543;27;20039;-81
2023/04/18 07:55:38;;;;;;;10.57;7.97;;;9.50;99.90;;;;;;5108848;27;20449;-81
2023/04/18 07:58:04;;;;;;;10.07;7.55;;;9.50;99.90;;;;;;5108827;27;20082;-82
2023/04/18 08:00:31;;;;;;;9.63;7.90;;;9.70;99.90;;;;;;5108888;27;20063;-81
2023/04/18 08:03:00;;;;;;;10.23;7.70;;;9.90;99.90;;;;;;5084929;27;20386;-82
2023/04/18 08:05:25;;;;;;;10.35;7.88;;;10.00;99.90;;;;;;5109878;28;20351;-82
2023/04/18 08:07:51;;;;;;;9.65;7.90;;;9.80;99.90;;;;;;5107477;27;20066;-82
2023/04/18 08:10:17;;;;;;;9.77;7.40;;;10.10;99.90;;;;;;5109454;27;20116;-81
2023/04/18 08:12:42;;;;;;;13.30;8.05;;;10.20;99.90;;;;;;5129585;27;20099;-81
2023/04/18 08:15:08;;;;;;;10.05;8.10;;;10.20;99.90;;;;;;5111367;27;20055;-82
2023/04/18 08:17:37;;;;;;;10.93;8.18;;;10.30;99.90;;;;;;5105048;27;20047;-80
2023/04/18 08:20:06;;;;;;;10.40;8.15;;;10.50;99.90;;;;;;5109328;28;20044;-81
2023/04/18 08:22:32;;;;;;;11.35;8.60;;;10.60;99.90;;;;;;5088622;28;20138;-80
2023/04/18 08:24:59;;;;;;;9.23;7.85;;;10.60;99.90;;;;;;5108063;28;20051;-81
2023/04/18 08:27:25;;;;;;;10.20;8.23;;;10.50;99.90;;;;;;5108402;27;20051;-80
2023/04/18 08:29:51;;;;;;;10.88;7.85;;;10.50;99.90;;;;;;5110310;27;20043;-79
2023/04/18 08:32:16;;;;;;;9.75;7.78;;;10.40;99.90;;;;;;5128766;27;20043;-80
2023/04/18 08:34:42;;;;;;;10.95;8.57;;;10.50;99.90;;;;;;5126077;27;20118;-80
2023/04/18 08:37:08;;;;;;;12.40;8.32;;;10.40;99.90;;;;;;5092023;28;20051;-80
2023/04/18 08:39:34;;;;;;;10.85;8.85;;;10.50;99.90;;;;;;5071779;28;20103;-79
2023/04/18 08:42:00;;;;;;;11.55;7.70;;;10.50;99.90;;;;;;5066398;28;20573;-80
2023/04/18 08:44:29;;;;;;;11.68;8.27;;;10.50;99.90;;;;;;5067488;28;20507;-81
2023/04/18 08:46:58;;;;;;;10.88;8.27;;;10.60;99.90;;;;;;5070310;28;20086;-78
2023/04/18 08:49:24;;;;;;;11.75;8.82;;;10.50;99.90;;;;;;5065953;28;20550;-79
2023/04/18 08:51:51;;;;;;;10.43;8.60;;;10.40;99.90;;;;;;5066718;28;20119;-80
2023/04/18 08:54:21;;;;;;;10.88;8.20;;;10.70;99.90;;;;;;5067275;28;20410;-78
2023/04/18 08:57:01;;;;;;;11.55;8.60;;;10.40;99.90;;;;;;5066611;28;20049;-80
2023/04/18 08:59:29;;;;;;;9.20;8.00;;;10.40;99.90;;;;;;5079778;28;20132;-80
2023/04/18 09:01:56;;;;;;;10.05;7.82;;;10.40;99.90;;;;;;5081750;28;20051;-81
2023/04/18 09:04:33;;;;;;;9.93;8.15;;;10.40;99.90;;;;;;5086442;28;20048;-80
2023/04/18 09:07:00;;;;;;;12.02;8.65;;;10.40;99.90;;;;;;5085311;28;20131;-78
2023/04/18 09:09:26;;;;;;;11.18;8.18;;;10.60;99.90;;;;;;5087489;28;20052;-80
2023/04/18 09:12:08;;;;;;;11.18;8.23;;;10.70;99.90;;;;;;5088231;28;20105;-80
2023/04/18 09:14:41;;;;;;;12.52;9.27;;;10.90;99.90;;;;;;5086916;28;20044;-80
2023/04/18 09:17:10;;;;;;;12.00;8.60;;;10.90;99.90;;;;;;5087306;28;20119;-79
2023/04/18 09:19:37;;;;;;;9.85;7.70;;;11.00;99.90;;;;;;5090705;28;20052;-80
2023/04/18 09:22:03;;;;;;;9.98;8.27;;;11.10;99.90;;;;;;5091304;28;20118;-80
2023/04/18 09:24:30;;;;;;;12.05;8.52;;;11.20;99.90;;;;;;5090616;28;20363;-80
2023/04/18 09:26:57;;;;;;;9.93;7.78;;;11.20;99.90;;;;;;5092493;28;20161;-80
2023/04/18 09:29:45;;;;;;;11.98;8.85;;;11.20;99.90;;;;;;5091767;28;20036;-80
2023/04/18 09:32:19;;;;;;;8.45;7.20;;;11.40;99.90;;;;;;5090506;28;20127;-80
2023/04/18 09:34:45;;;;;;;9.70;7.45;;;12.00;99.90;;;;;;5091491;28;20052;-80
2023/04/18 09:37:12;;;;;;;10.38;8.32;;;11.60;99.90;;;;;;5102556;27;20047;-80
2023/04/18 09:40:14;;;;;;;9.98;8.00;;;11.70;99.90;;;;;;5101674;27;20043;-81
2023/04/18 09:42:39;;;;;;;11.02;8.38;;;11.80;99.90;;;;;;5106275;27;20409;-81
2023/04/18 09:45:07;;;;;;;9.48;8.35;;;11.90;99.90;;;;;;5121512;27;20042;-81
2023/04/18 09:47:34;;;;;;;9.15;7.68;;;12.10;99.90;;;;;;5093527;28;20803;-81
2023/04/18 09:50:04;;;;;;;11.55;8.48;;;12.10;99.90;;;;;;5127298;27;20079;-80
2023/04/18 09:52:33;;;;;;;8.63;7.43;;;11.90;99.90;;;;;;5095266;27;20050;-81
2023/04/18 09:55:02;;;;;;;8.85;6.65;;;11.70;99.90;;;;;;5114055;27;20039;-80
2023/04/18 09:57:30;;;;;;;10.93;7.95;;;11.60;99.90;;;;;;5130452;27;20107;-81
2023/04/18 10:00:23;;;;;;;11.05;8.25;;;11.60;99.90;;;;;;5121579;27;20047;-80
2023/04/18 10:03:09;;;;;;;9.43;7.75;;;11.60;99.90;;;;;;5066953;28;20055;-80
2023/04/18 10:05:37;;;;;;;9.68;8.13;;;11.80;99.90;;;;;;5116021;27;20089;-81
2023/04/18 10:08:03;;;;;;;9.68;8.32;;;12.40;99.90;;;;;;5130604;27;20472;-80
2023/04/18 10:10:29;;;;;;;10.35;7.82;;;12.30;99.90;;;;;;5131518;27;20035;-80
2023/04/18 10:12:57;;;;;;;10.82;8.15;;;12.40;99.90;;;;;;5109368;27;20100;-80
2023/04/18 10:15:25;;;;;;;9.68;8.60;;;12.40;99.80;;;;;;5111236;27;20031;-79
2023/04/18 10:17:57;;;;;;;11.60;9.02;;;12.30;99.80;;;;;;5117975;27;20031;-79
2023/04/18 10:20:25;;;;;;;9.48;8.35;;;12.20;99.50;;;;;;5131333;27;20058;-80
2023/04/18 10:22:53;;;;;;;11.57;8.80;;;12.20;99.70;;;;;;5112714;27;20144;-81
2023/04/18 10:25:37;;;;;;;9.70;8.07;;;12.20;99.40;;;;;;5128623;27;20433;-81
2023/04/18 10:28:07;;;;;;;12.50;8.13;;;12.30;99.20;;;;;;5130803;27;20054;-81
2023/04/18 10:30:53;;;;;;;12.32;9.13;;;12.30;98.90;;;;;;5107295;27;20039;-79
2023/04/18 10:33:39;;;;;;;10.30;8.75;;;12.30;97.00;;;;;;5120197;27;20066;-79
2023/04/18 10:36:07;;;;;;;9.27;7.75;;;12.20;98.10;;;;;;5129589;27;20043;-80
2023/04/18 10:38:43;;;;;;;9.40;7.60;;;12.30;98.70;;;;;;5111844;27;20074;-81
2023/04/18 10:41:25;;;;;;;11.98;8.10;;;12.60;98.70;;;;;;5129958;27;20094;-79
2023/04/18 10:44:06;;;;;;;10.18;8.05;;;13.00;98.00;;;;;;5112197;27;20047;-81
2023/04/18 10:46:36;;;;;;;10.75;8.57;;;13.10;96.30;;;;;;5111384;27;20055;-80
2023/04/18 10:49:12;;;;;;;11.90;8.30;;;13.20;94.80;;;;;;5129989;27;20047;-80
2023/04/18 10:51:38;;;;;;;10.13;8.18;;;13.20;94.90;;;;;;5112475;27;20130;-80
2023/04/18 10:54:08;;;;;;;11.40;8.15;;;13.30;95.90;;;;;;5094907;27;20051;-81
2023/04/18 10:56:33;;;;;;;9.13;6.68;;;13.20;95.30;;;;;;5111857;27;20125;-80
2023/04/18 10:59:02;;;;;;;8.13;7.22;;;13.00;95.20;;;;;;5111625;27;20127;-81
2023/04/18 11:01:31;;;;;;;8.20;7.30;;;12.90;94.50;;;;;;5112239;27;20129;-81
2023/04/18 11:04:02;;;;;;;9.10;7.78;;;12.80;95.30;;;;;;5092899;27;20835;-82
2023/04/18 11:06:30;;;;;;;8.05;7.25;;;13.00;94.50;;;;;;5112657;27;20043;-80
2023/04/18 11:09:12;;;;;;;7.70;7.00;;;13.20;94.40;;;;;;5094068;28;20412;-79
2023/04/18 11:11:38;;;;;;;8.70;6.78;;;13.30;93.20;;;;;;5110731;28;20043;-79
2023/04/18 11:14:04;;;;;;;7.50;6.70;;;13.30;93.10;;;;;;5109775;28;20162;-79
2023/04/18 11:16:32;;;;;;;7.50;6.68;;;13.30;93.10;;;;;;5074425;28;20181;-80
2023/04/18 11:18:58;;;;;;;8.45;7.07;;;13.30;93.30;;;;;;5093636;27;20074;-79
2023/04/18 11:21:26;;;;;;;7.88;6.28;;;13.60;92.90;;;;;;5129020;27;20042;-79
2023/04/18 11:23:56;;;;;;;8.23;6.65;;;13.90;92.80;;;;;;5130418;27;20058;-79
2023/04/18 11:26:26;;;;;;;7.40;6.40;;;14.10;92.00;;;;;;5130443;27;20050;-80
2023/04/18 11:28:55;;;;;;;9.40;6.80;;;14.10;89.70;;;;;;5129623;27;20358;-80
2023/04/18 11:31:25;;;;;;;7.28;6.57;;;14.10;90.00;;;;;;5111633;27;20135;-80
2023/04/18 11:33:51;;;;;;;9.40;7.60;;;14.20;88.60;;;;;;5112056;27;20042;-79
2023/04/18 11:36:25;;;;;;;7.80;7.00;;;14.00;89.50;;;;;;5111833;27;20050;-80
2023/04/18 11:38:50;;;;;;;7.53;6.70;;;13.80;89.00;;;;;;5111124;27;20043;-80
2023/04/18 11:41:16;;;;;;;11.23;7.60;;;13.70;89.20;;;;;;5128430;27;20039;-81
2023/04/18 11:43:43;;;;;;;8.20;7.28;;;13.70;89.60;;;;;;5126665;27;20535;-80
2023/04/18 11:46:10;;;;;;;9.98;7.45;;;13.80;89.10;;;;;;5127533;27;20071;-80
2023/04/18 11:48:39;;;;;;;10.73;8.27;;;13.80;89.20;;;;;;5128972;27;20148;-79
2023/04/18 11:51:06;;;;;;;9.07;8.18;;;14.10;88.40;;;;;;5128659;27;20062;-79
2023/04/18 11:53:37;;;;;;;8.65;7.75;;;14.20;85.90;;;;;;5109387;27;20039;-80
2023/04/18 11:56:08;;;;;;;9.07;8.15;;;14.30;84.00;;;;;;5111174;27;20528;-82
2023/04/18 11:58:35;;;;;;;10.30;9.20;;;14.30;83.00;;;;;;5129526;27;20122;-82
2023/04/18 12:01:21;;;;;;;9.88;8.88;;;14.50;83.50;;;;;;5111140;27;20118;-81
2023/04/18 12:04:19;;;;;;;10.73;9.23;;;14.40;80.40;;;;;;5111486;27;20040;-81
2023/04/18 12:06:52;;;;;;;9.35;8.45;;;14.50;79.60;;;;;;5066280;27;20062;-82
2023/04/18 12:09:24;;;;;;;10.60;8.80;;;14.60;81.80;;;;;;5093689;27;20123;-81
2023/04/18 12:12:04;;;;;;;10.68;8.98;;;14.60;81.90;;;;;;5127340;27;20142;-81
2023/04/18 12:14:29;;;;;;;10.25;9.13;;;14.70;79.60;;;;;;5090563;28;20130;-80
2023/04/18 12:16:55;;;;;;;10.90;9.32;;;14.80;81.40;;;;;;5111460;27;20465;-81
2023/04/18 12:19:29;;;;;;;10.15;8.60;;;14.80;80.80;;;;;;5110614;27;20047;-81
2023/04/18 12:21:59;;;;;;;10.20;8.48;;;14.90;78.70;;;;;;5109698;27;20350;-81
2023/04/18 12:24:27;;;;;;;9.93;8.60;;;14.90;78.80;;;;;;5126339;27;20161;-81
2023/04/18 12:26:54;;;;;;;11.40;8.73;;;14.90;79.20;;;;;;5093576;27;20043;-81
2023/04/18 12:29:19;;;;;;;10.07;8.95;;;14.90;78.70;;;;;;5110284;27;20039;-81
2023/04/18 12:31:46;;;;;;;9.82;8.82;;;14.90;78.10;;;;;;5111012;27;20103;-81
2023/04/18 12:34:12;;;;;;;9.23;8.32;;;14.90;77.50;;;;;;5111036;27;20046;-80
2023/04/18 12:36:38;;;;;;;11.60;9.23;;;14.80;76.90;;;;;;5129188;27;20055;-81
2023/04/18 12:39:03;;;;;;;11.68;8.88;;;14.70;77.00;;;;;;5127416;27;20062;-81
2023/04/18 12:41:29;;;;;;;9.88;8.88;;;14.60;77.60;;;;;;5128231;27;20078;-81
2023/04/18 12:43:55;;;;;;;9.55;8.35;;;14.70;77.20;;;;;;5093578;27;20054;-80